• Join FlightAware (Why Join?)
  • Login
  • US Flag 
11:36AM EDT


 

Airport Tracker/Info


-or-


 

Live Flight TrackerFlight Track Log ✈ ASQ4117 ✈ 06-Aug-2013 ✈ KHSV - KORD

Flight Track Log - Related Links

Times and Time Zones

All times are in EDT time to prevent confusion due to time zone crossing. See the ASQ4117 flight status page for this flight to view local times or setup timezone preferences in your user account.

Time Position Orientation Groundspeed Altitude Reporting Facility
EDT Latitude Longitude Course Direction KTS MPH feet Rate Location/Type
03:08PM 34.5781 -86.8511 North 262 302 4,900  Level Memphis Center
03:09PM 34.6467 -86.8456 North 193 222 7,800 2,760 Climbing Memphis Center
03:10PM 34.9706 -86.7784 352° North  Level FlightAware Approximate
03:10PM 34.7236 -86.8322 North 213 245 10,500  Level Memphis Center
03:11PM 35.0521 -86.7667 North  Level FlightAware Approximate
03:11PM 34.8086 -86.8186 North 264 304 12,300  Level Memphis Center
03:12PM 35.1366 -86.7667 North  Level FlightAware Approximate
03:12PM 34.9019 -86.7994 10° North 305 351 13,800  Level Memphis Center
03:13PM 35.2209 -86.7635 North  Level FlightAware Approximate
03:13PM 35.0039 -86.7850 North 341 392 15,400  Level Memphis Center
03:14PM 35.0872 -86.7792 North 360 414 16,600 1,380 Climbing Memphis Center
03:15PM 35.2017 -86.7692 North 371 427 18,200 1,500 Climbing Memphis Center
03:16PM 35.3056 -86.7594 North 371 427 19,700 1,440 Climbing Memphis Center
03:17PM 35.4117 -86.7522 North 371 427 21,200 1,500 Climbing Memphis Center
03:18PM 35.5178 -86.7428 North 376 433 22,700 1,560 Climbing Memphis Center
03:19PM 35.6322 -86.7325 North 376 433 24,300 1,500 Climbing Memphis Center
03:20PM 35.7361 -86.7228 North 381 438 25,800 1,500 Climbing Memphis Center
03:21PM 35.8381 -86.7106 North 371 427 27,300 1,500 Climbing Memphis Center
03:22PM 35.9369 -86.6678 19° North 365 420 28,800 1,500 Climbing Memphis Center
03:23PM 36.0314 -86.6172 23° Northeast 365 420 30,400 1,380 Climbing Memphis Center
03:24PM 36.1278 -86.5692 22° Northeast 371 427 31,600 1,200 Climbing Memphis Center
03:25PM 36.2264 -86.5183 23° Northeast 371 427 32,900 1,200 Climbing Memphis Center
03:26PM 36.3247 -86.4700 22° Northeast 371 427 34,100 1,020 Climbing Memphis Center
03:27PM 36.4256 -86.4214 21° North 376 433 35,000 420 Climbing Memphis Center
03:28PM 36.5322 -86.3697 21° North 394 453 35,000  Level Memphis Center
03:29PM 36.6450 -86.3150 21° North 416 479 35,000  Level Memphis Center
03:30PM 36.7642 -86.2572 21° North 444 511 35,000  Level Memphis Center
03:31PM 36.8850 -86.1989 21° North 454 522 35,000  Level Memphis Center
03:32PM 36.9428 -86.1672 24° Northeast 462 532 35,000  Level Indianapolis Center
03:33PM 37.0636 -86.1069 22° Northeast 463 533 35,000  Level Indianapolis Center
03:34PM 37.1842 -86.0458 22° Northeast 464 534 35,000  Level Indianapolis Center
03:35PM 37.3058 -85.9861 21° North 465 535 35,000  Level Indianapolis Center
03:36PM 37.4308 -85.9672 North 454 522 35,000  Level Indianapolis Center
03:37PM 37.5633 -85.9561 North 454 522 35,000  Level Indianapolis Center
03:38PM 37.6878 -85.9447 North 450 518 35,000  Level Indianapolis Center
03:39PM 37.8136 -85.9333 North 451 519 35,000  Level Indianapolis Center
03:40PM 37.9628 -85.9194 North 448 516 35,000  Level Indianapolis Center
03:41PM 38.0836 -85.9092 North 438 504 35,000  Level Indianapolis Center
03:42PM 38.2033 -85.8975 North 433 498 35,000  Level Indianapolis Center
03:43PM 38.3217 -85.8872 North 427 491 35,000  Level Indianapolis Center
03:44PM 38.4406 -85.8758 North 427 491 35,000  Level Indianapolis Center
03:45PM 38.5603 -85.8642 North 432 497 35,000 -360 Level Indianapolis Center
03:46PM 38.7008 -85.8514 North 431 496 34,300 -720 Descending Indianapolis Center
03:47PM 38.8236 -85.8400 North 441 507 33,600 -840 Descending Indianapolis Center
03:48PM 38.9444 -85.8292 North 439 505 32,600 -900 Descending Indianapolis Center
03:49PM 39.0664 -85.8178 North 442 509 31,800 -900 Descending Indianapolis Center
03:50PM 39.1883 -85.8047 North 443 510 30,800 -1,020 Descending Indianapolis Center
03:51PM 39.3356 -85.7906 North 446 513 29,700 -1,020 Descending Indianapolis Center
03:52PM 39.4617 -85.7794 North 453 521 28,800 -840 Descending Indianapolis Center
03:53PM 39.5856 -85.7678 North 454 522 28,000 -420 Descending Indianapolis Center
03:54PM 39.7092 -85.7550 North 452 520 28,000  Level Indianapolis Center
03:55PM 39.8325 -85.7442 North 450 518 28,000 -300 Level Indianapolis Center
03:56PM 39.9808 -85.7300 North 450 518 27,400 -780 Descending Indianapolis Center
03:57PM 40.1056 -85.7178 North 452 520 26,400 -1,020 Descending Indianapolis Center
03:58PM 40.2311 -85.7053 North 455 524 25,300 -1,080 Descending Indianapolis Center
03:59PM 40.3572 -85.6928 North 456 525 24,300 -660 Descending Indianapolis Center
04:00PM 40.4814 -85.6828 North 451 519 24,000 -180 Descending Indianapolis Center
04:02PM 40.6197 -85.7350 344° North 439 505 24,000 -240 Level Indianapolis Center
04:03PM 40.7161 -85.8225 325° Northwest 429 494 23,600 -540 Descending Indianapolis Center
04:04PM 40.8092 -85.9164 323° Northwest 424 488 23,000 -300 Descending Indianapolis Center
04:05PM 40.9008 -86.0117 322° Northwest 422 486 23,000  Level Indianapolis Center
04:06PM 40.9947 -86.1081 322° Northwest 425 489 23,000  Level Indianapolis Center
04:07PM 41.1053 -86.2222 322° Northwest 423 487 23,000  Level Indianapolis Center
04:08PM 41.1961 -86.3158 322° Northwest 420 483 23,000 -480 Level Indianapolis Center
04:09PM 41.2853 -86.4100 322° Northwest 415 478 22,100 -2,160 Descending Indianapolis Center
04:10PM 41.3917 -86.5175 323° Northwest 392 451 18,000 -3,060 Descending Chicago Center
04:11PM 41.4758 -86.6053 322° Northwest 385 443 14,900 -2,880 Descending Chicago Center
04:12PM 41.5722 -86.7056 322° Northwest 366 421 12,100 -1,440 Descending Chicago Center
04:13PM 41.6397 -86.7767 322° Northwest 357 411 12,000 -60 Descending Chicago Center
04:14PM 41.7422 -86.8286 339° North 346 398 12,000  Level Chicago Center
04:15PM 41.8344 -86.8108 North 346 398 12,000  Level Chicago Center
04:16PM 41.9011 -86.8686 327° Northwest 289 333 12,000 -240 Level Chicago Center
04:17PM 41.9483 -86.9444 310° West 276 318 11,600 -1,080 Descending Chicago Center
04:18PM 41.9594 -87.0639 277° West 272 313 9,800 -1,740 Descending Chicago Center
04:19PM 41.9692 -87.1614 278° West 266 306 8,100 -1,440 Descending Chicago Center
04:20PM 41.9786 -87.2606 277° West 270 311 6,900 -540 Descending Chicago Center
04:21PM 41.9850 -87.3433 276° West 242 278 7,000  Climbing Chicago Center
04:22PM 41.9828 -87.4197 268° West 216 249 6,900 -300 Descending Chicago Center
04:24PM 41.9825 -87.4944 270° West 172 198 6,400 -780 Descending Chicago Center
04:25PM 41.9822 -87.5597 270° West 174 200 5,300 -1,020 Descending Chicago Center
04:26PM 41.9833 -87.6239 271° West 173 199 4,400 -900 Descending Chicago Center
04:27PM 41.9833 -87.6892 270° West 174 200 3,500 -960 Descending Chicago Center
04:28PM 41.9833 -87.7558 270° West 177 204 2,500 -900 Descending Chicago Center
04:29PM 41.9839 -87.8275 271° West 172 198 1,700 -600 Descending Chicago Center
04:30PM 41.9844 -87.8761 271° West 164 189 1,300 -420 Descending Chicago Center